Time;durP1;ratioP1;P1;durP2;ratioP2;P2;SDS_P1;SDS_P2;PMS_P1;PMS_P2;Temp;Humidity;BMP_temperature;BMP_pressure;BME280_temperature;BME280_humidity;BME280_pressure;Samples;Min_cycle;Max_cycle;Signal;HPM_P1;HPM_P2
2022/06/27 00:00:17;;;;;;;1.60;1.38;;;18.20;99.90;;;17.99;100.00;96880.22;5000317;28;20026;-40
2022/06/27 00:02:43;;;;;;;1.35;1.25;;;18.10;99.90;;;17.95;100.00;96873.41;4998866;28;20195;-40
2022/06/27 00:05:11;;;;;;;2.67;1.17;;;18.10;99.90;;;17.96;100.00;96899.94;5002735;28;20045;-40
2022/06/27 00:07:37;;;;;;;1.48;1.10;;;18.10;99.90;;;17.83;100.00;96917.81;5007180;28;20052;-40
2022/06/27 00:10:05;;;;;;;1.30;1.00;;;18.00;99.90;;;17.66;100.00;96941.25;5002413;28;20048;-39
2022/06/27 00:12:31;;;;;;;1.73;0.88;;;17.90;99.90;;;17.65;100.00;96968.84;5005380;28;20033;-39
2022/06/27 00:14:58;;;;;;;1.83;0.80;;;17.80;99.90;;;17.52;100.00;96976.03;4998806;28;20025;-40
2022/06/27 00:17:24;;;;;;;1.00;0.65;;;17.70;99.90;;;17.42;100.00;96977.66;5001111;28;20505;-40
2022/06/27 00:19:50;;;;;;;2.72;0.80;;;17.60;99.90;;;17.32;100.00;97006.78;5003527;28;20046;-40
2022/06/27 00:22:16;;;;;;;1.17;0.80;;;17.50;99.90;;;17.24;100.00;97023.28;4992123;28;20100;-40
2022/06/27 00:24:42;;;;;;;1.60;0.70;;;;;;;17.05;100.00;97022.88;5008643;28;20033;-40
2022/06/27 00:27:08;;;;;;;1.92;0.75;;;17.30;99.90;;;16.89;100.00;97036.41;4982628;28;20242;-40
2022/06/27 00:29:33;;;;;;;2.38;0.80;;;17.10;99.90;;;16.76;100.00;97060.31;5002967;28;20029;-39
2022/06/27 00:31:59;;;;;;;5.85;1.05;;;16.90;99.90;;;16.69;100.00;97098.94;4999075;28;20026;-40
2022/06/27 00:34:25;;;;;;;4.22;0.88;;;16.80;99.90;;;16.51;100.00;97122.31;5003064;28;20061;-39
2022/06/27 00:36:50;;;;;;;4.30;0.82;;;16.70;99.90;;;16.40;100.00;97184.22;4966594;28;20880;-40
2022/06/27 00:39:16;;;;;;;6.10;0.98;;;16.60;99.90;;;16.27;100.00;97177.97;4976180;28;20045;-40
2022/06/27 00:41:42;;;;;;;3.90;0.90;;;16.50;99.90;;;16.26;100.00;97209.06;4986551;28;20079;-40
2022/06/27 00:44:09;;;;;;;4.15;1.20;;;16.40;99.90;;;16.13;100.00;97237.38;5002833;28;20040;-41
2022/06/27 00:46:34;;;;;;;2.55;1.00;;;16.40;99.90;;;16.08;100.00;97258.06;5004437;28;20026;-39
2022/06/27 00:49:00;;;;;;;3.40;1.10;;;16.30;99.90;;;16.01;100.00;97266.44;5001299;28;20124;-39
2022/06/27 00:51:26;;;;;;;3.63;1.30;;;16.30;99.90;;;16.02;100.00;97249.56;5009496;28;20539;-39
2022/06/27 00:53:54;;;;;;;5.22;1.48;;;16.20;99.90;;;16.02;100.00;97233.59;4987364;28;20121;-40
2022/06/27 00:56:20;;;;;;;5.15;1.67;;;16.20;99.90;;;15.97;100.00;97202.88;4981729;28;20120;-40
2022/06/27 00:58:46;;;;;;;4.20;1.20;;;16.20;99.90;;;15.98;100.00;97180.66;4991235;28;20034;-40
2022/06/27 01:01:13;;;;;;;6.75;1.35;;;16.20;99.90;;;16.01;100.00;97162.72;4998370;28;20026;-41
2022/06/27 01:03:39;;;;;;;12.23;1.05;;;16.20;99.90;;;15.97;100.00;97125.75;5002078;28;20030;-41
2022/06/27 01:06:05;;;;;;;3.92;0.85;;;16.20;99.90;;;16.00;100.00;97093.66;5001991;28;20061;-41
2022/06/27 01:08:31;;;;;;;6.82;1.45;;;16.20;99.90;;;16.06;100.00;97036.53;5004120;28;20040;-40
2022/06/27 01:10:57;;;;;;;5.90;1.45;;;16.30;99.90;;;16.04;100.00;97044.63;5001362;28;20033;-41
2022/06/27 01:13:23;;;;;;;4.15;0.82;;;16.30;99.90;;;16.02;100.00;97046.53;5003821;28;20030;-40
2022/06/27 01:15:50;;;;;;;1.83;1.15;;;16.20;99.90;;;16.00;100.00;97043.13;5003595;28;20029;-41
2022/06/27 01:18:16;;;;;;;3.67;1.10;;;16.20;99.90;;;16.00;100.00;97033.31;5000911;28;20034;-40
2022/06/27 01:20:44;;;;;;;42.45;3.67;;;16.20;99.90;;;15.96;100.00;97009.72;5004741;28;20049;-40
2022/06/27 01:23:11;;;;;;;2.67;0.93;;;16.20;99.90;;;16.03;100.00;97037.63;4984895;28;20103;-40
2022/06/27 01:25:37;;;;;;;3.75;1.25;;;16.20;99.90;;;16.04;100.00;97049.94;5009137;28;20049;-40
2022/06/27 01:28:05;;;;;;;1.55;0.70;;;16.30;99.90;;;15.99;100.00;97052.06;5001493;28;20034;-40
2022/06/27 01:30:31;;;;;;;2.03;0.82;;;16.20;99.90;;;15.99;100.00;97030.78;4997285;28;20029;-40
2022/06/27 01:32:56;;;;;;;1.58;0.70;;;16.20;99.90;;;16.00;100.00;97012.06;5000957;28;20439;-40
2022/06/27 01:35:22;;;;;;;3.38;0.80;;;16.20;99.90;;;15.99;100.00;97004.19;4999348;28;20582;-40
2022/06/27 01:37:48;;;;;;;2.60;0.80;;;16.20;99.90;;;15.93;100.00;96983.31;5001604;28;20037;-39
2022/06/27 01:40:15;;;;;;;1.95;0.88;;;16.20;99.90;;;15.92;100.00;96976.28;5002154;28;20501;-39
2022/06/27 01:42:42;;;;;;;3.42;1.00;;;16.20;99.90;;;15.89;100.00;96982.66;4994044;28;20144;-39
2022/06/27 01:45:09;;;;;;;2.10;0.80;;;16.10;99.90;;;15.87;100.00;96983.72;5004278;28;20033;-39
2022/06/27 01:47:35;;;;;;;1.50;0.80;;;16.10;99.90;;;15.87;100.00;96991.69;4995030;28;20368;-40
2022/06/27 01:50:01;;;;;;;2.40;0.90;;;16.10;99.90;;;15.84;100.00;97003.38;4998095;28;20473;-40
2022/06/27 01:52:28;;;;;;;2.17;0.70;;;16.10;99.90;;;15.86;100.00;97014.75;4998320;28;20057;-40
2022/06/27 01:54:55;;;;;;;1.40;0.65;;;16.10;99.90;;;15.89;100.00;97003.06;4999511;28;20036;-40
2022/06/27 01:57:23;;;;;;;2.90;0.60;;;16.10;99.90;;;15.93;100.00;97000.09;4998129;28;20041;-40
2022/06/27 01:59:50;;;;;;;1.83;0.85;;;16.10;99.90;;;15.96;100.00;97001.72;4999775;28;20493;-39
2022/06/27 02:02:18;;;;;;;3.17;0.90;;;16.20;99.90;;;16.01;100.00;97005.78;5000111;28;20049;-39
2022/06/27 02:04:44;;;;;;;5.00;1.42;;;16.20;99.90;;;16.07;100.00;97004.53;4992964;28;20112;-39
2022/06/27 02:07:12;;;;;;;4.07;1.73;;;16.20;99.90;;;16.12;100.00;97014.88;4979776;28;20081;-40
2022/06/27 02:09:37;;;;;;;2.20;1.75;;;16.30;99.90;;;16.13;100.00;97006.81;4999263;28;20108;-40
2022/06/27 02:12:19;;;;;;;1.83;1.67;;;16.30;99.90;;;16.14;100.00;97003.19;4997177;28;20085;-40
2022/06/27 02:14:54;;;;;;;1.88;1.13;;;16.30;99.90;;;16.11;100.00;96991.88;4997057;28;20030;-41
2022/06/27 02:17:21;;;;;;;2.97;1.50;;;16.30;99.90;;;16.11;100.00;97005.19;4996803;28;20042;-40
2022/06/27 02:19:48;;;;;;;1.98;1.42;;;16.30;99.90;;;16.10;100.00;97004.34;4994734;28;20532;-40
2022/06/27 02:22:13;;;;;;;3.28;1.80;;;16.30;99.90;;;16.10;100.00;96991.03;4996191;28;20132;-40
2022/06/27 02:24:40;;;;;;;2.50;1.67;;;16.30;99.90;;;16.10;100.00;96999.03;4993635;28;20034;-40
2022/06/27 02:27:09;;;;;;;2.28;1.20;;;16.30;99.90;;;16.09;100.00;96999.97;4998385;28;20048;-40
2022/06/27 02:29:36;;;;;;;2.75;1.73;;;16.30;99.90;;;16.08;100.00;97002.72;4998628;28;20060;-40
2022/06/27 02:32:03;;;;;;;2.38;0.90;;;16.30;99.90;;;16.03;100.00;96995.06;4999779;28;20104;-40
2022/06/27 02:34:29;;;;;;;3.90;1.45;;;16.30;99.90;;;16.00;100.00;97000.56;4998264;28;20048;-40
2022/06/27 02:36:56;;;;;;;3.33;1.63;;;16.20;99.90;;;16.05;100.00;97006.44;4993572;28;20057;-40
2022/06/27 02:39:25;;;;;;;1.52;1.10;;;16.20;99.90;;;16.07;100.00;96991.22;4998367;28;20022;-39
2022/06/27 02:41:54;;;;;;;2.10;1.40;;;16.20;99.90;;;16.05;100.00;96981.66;4994364;28;20030;-40
2022/06/27 02:44:22;;;;;;;5.70;1.50;;;16.30;99.90;;;16.04;100.00;96991.44;4998041;28;20042;-40
2022/06/27 02:46:50;;;;;;;2.33;1.10;;;16.30;99.90;;;16.07;100.00;96967.28;4993420;28;20030;-40
2022/06/27 02:49:16;;;;;;;3.38;1.52;;;16.30;99.90;;;16.06;100.00;96962.94;4991686;28;20061;-39
2022/06/27 02:52:01;;;;;;;2.25;1.30;;;16.30;99.90;;;16.00;100.00;96969.50;4978200;28;20027;-39
2022/06/27 02:54:42;;;;;;;1.02;0.90;;;16.20;99.90;;;16.01;100.00;96976.53;4980194;28;20514;-39
2022/06/27 02:57:38;;;;;;;1.65;1.40;;;16.20;99.90;;;16.01;100.00;96973.88;4995039;28;20041;-39
2022/06/27 03:00:07;;;;;;;1.80;1.20;;;16.20;99.90;;;16.02;100.00;96972.06;4980479;28;20049;-40
2022/06/27 03:02:38;;;;;;;1.60;1.08;;;16.20;99.90;;;15.99;100.00;96957.16;4996520;28;20026;-40
2022/06/27 03:05:04;;;;;;;1.70;1.20;;;16.20;99.90;;;15.95;100.00;96961.00;4961004;28;20068;-40
2022/06/27 03:07:36;;;;;;;1.90;1.00;;;16.10;99.90;;;15.89;100.00;96964.03;4991985;28;20057;-39
2022/06/27 03:10:03;;;;;;;2.67;1.20;;;16.10;99.90;;;15.81;100.00;96975.19;4997316;28;20052;-39
2022/06/27 03:12:28;;;;;;;2.05;1.45;;;16.00;99.90;;;15.81;100.00;96971.69;5000972;28;20084;-40
2022/06/27 03:14:54;;;;;;;2.65;1.50;;;16.00;99.90;;;15.81;100.00;96977.00;5000672;28;20037;-40
2022/06/27 03:17:20;;;;;;;1.65;1.27;;;16.00;99.90;;;15.77;100.00;96970.16;4999212;28;20461;-40
2022/06/27 03:19:45;;;;;;;1.95;1.25;;;16.00;99.90;;;15.74;100.00;96968.56;4998188;28;20049;-40
2022/06/27 03:22:11;;;;;;;2.03;1.30;;;15.90;99.90;;;15.65;100.00;96963.81;4999236;28;20486;-40
2022/06/27 03:24:37;;;;;;;1.88;1.15;;;15.90;99.90;;;15.49;100.00;96952.41;5000656;28;20044;-41
2022/06/27 03:27:03;;;;;;;1.77;1.20;;;15.90;99.90;;;15.68;100.00;96984.00;4996940;28;20041;-40
2022/06/27 03:29:29;;;;;;;1.65;1.17;;;15.90;99.90;;;15.71;100.00;96974.03;4999220;28;20084;-40
2022/06/27 03:31:55;;;;;;;2.75;1.30;;;15.90;99.90;;;15.81;100.00;96969.03;4999594;28;20391;-40
2022/06/27 03:34:21;;;;;;;2.65;1.20;;;16.00;99.90;;;15.83;100.00;96975.94;4998640;28;20030;-40
2022/06/27 03:36:46;;;;;;;1.40;1.10;;;16.00;99.90;;;15.87;100.00;96991.69;4997986;28;20036;-40
2022/06/27 03:39:12;;;;;;;2.83;1.25;;;16.00;99.90;;;15.87;100.00;97003.19;5003200;28;21197;-40
2022/06/27 03:41:39;;;;;;;3.20;1.80;;;16.10;99.90;;;15.91;100.00;97003.81;5006009;28;20489;-40
2022/06/27 03:44:08;;;;;;;5.25;1.50;;;16.10;99.90;;;15.89;100.00;96987.13;5002850;28;20038;-40
2022/06/27 03:46:36;;;;;;;2.38;1.60;;;16.20;99.90;;;16.01;100.00;97011.09;5003042;28;20079;-40
2022/06/27 03:51:47;;;;;;;5.28;2.40;;;16.20;99.90;;;15.99;100.00;96981.09;5002150;28;20037;-42
2022/06/27 03:54:12;;;;;;;4.22;2.25;;;16.20;99.90;;;16.04;100.00;96967.50;4995754;28;20378;-40
2022/06/27 03:56:38;;;;;;;3.65;2.00;;;16.20;99.90;;;16.05;100.00;96968.38;5000129;28;20025;-40
2022/06/27 03:59:04;;;;;;;2.20;1.90;;;16.20;99.90;;;16.08;100.00;96971.66;4994428;28;20038;-40
2022/06/27 04:01:29;;;;;;;1.98;1.75;;;16.20;99.90;;;16.09;100.00;96953.91;4996167;28;20066;-40
2022/06/27 04:03:55;;;;;;;2.95;1.80;;;16.30;99.90;;;16.10;100.00;96953.81;5001380;28;20041;-40
2022/06/27 04:06:21;;;;;;;4.55;1.80;;;16.30;99.90;;;16.08;100.00;96965.47;5001996;28;20061;-40
2022/06/27 04:08:46;;;;;;;4.90;1.98;;;16.30;99.90;;;16.15;100.00;96972.97;4996208;28;20145;-40
2022/06/27 04:11:12;;;;;;;2.30;1.55;;;16.30;99.90;;;16.17;100.00;96964.91;4989582;28;20075;-40
2022/06/27 04:13:38;;;;;;;3.83;2.00;;;16.30;99.90;;;16.19;100.00;96958.50;4995016;28;20030;-40
2022/06/27 04:16:04;;;;;;;2.05;1.40;;;16.40;99.90;;;16.20;100.00;96970.00;4993850;28;20505;-40
2022/06/27 04:18:30;;;;;;;3.22;2.25;;;16.40;99.90;;;16.28;100.00;97001.44;5002448;28;20056;-41
2022/06/27 04:20:56;;;;;;;4.18;1.70;;;16.50;99.90;;;16.32;100.00;97000.25;5001566;28;20450;-40
2022/06/27 04:23:21;;;;;;;2.58;1.95;;;16.50;99.90;;;16.31;100.00;96988.78;4997356;28;20572;-42
2022/06/27 04:25:47;;;;;;;2.50;1.63;;;16.50;99.90;;;16.39;100.00;96958.97;4999830;28;20532;-40
2022/06/27 04:28:13;;;;;;;2.13;1.67;;;16.60;99.90;;;16.48;100.00;96958.34;4990444;28;20116;-40
2022/06/27 04:30:40;;;;;;;4.18;1.40;;;16.60;99.90;;;16.50;100.00;96952.94;5005741;28;20109;-40
2022/06/27 04:33:07;;;;;;;2.45;1.30;;;16.70;99.90;;;16.60;100.00;96952.19;4999696;28;20048;-40
2022/06/27 04:35:33;;;;;;;1.73;1.40;;;16.80;99.90;;;16.67;100.00;96949.09;5000357;28;20114;-40
2022/06/27 04:38:00;;;;;;;1.85;1.10;;;16.80;99.90;;;16.73;100.00;96938.06;5000950;28;20113;-40
2022/06/27 04:40:27;;;;;;;4.90;1.85;;;16.90;99.90;;;16.75;100.00;96923.66;5001486;28;20390;-40
2022/06/27 04:42:53;;;;;;;3.50;1.73;;;16.90;99.90;;;16.78;100.00;96901.31;5026839;22;20528;-44
2022/06/27 04:45:19;;;;;;;3.00;1.52;;;17.00;99.90;;;16.90;100.00;96913.78;5018508;28;20037;-48
2022/06/27 04:47:47;;;;;;;2.92;1.50;;;17.00;99.90;;;17.01;100.00;96920.16;5020716;28;20068;-46
2022/06/27 04:50:18;;;;;;;3.85;1.30;;;17.10;99.90;;;17.06;100.00;96902.03;5013951;28;20026;-46
2022/06/27 04:52:45;;;;;;;1.25;1.00;;;17.20;99.90;;;17.31;100.00;96919.78;5012320;28;20025;-45
2022/06/27 04:55:12;;;;;;;2.92;1.27;;;17.40;99.90;;;17.43;100.00;96918.91;5012000;28;20051;-44
2022/06/27 04:57:42;;;;;;;2.90;1.48;;;17.50;99.90;;;17.62;100.00;96928.22;5016740;28;20037;-47
2022/06/27 05:00:12;;;;;;;4.40;1.52;;;17.70;99.90;;;17.69;100.00;96932.16;5011923;28;20044;-45
2022/06/27 05:02:38;;;;;;;5.78;1.80;;;17.70;99.90;;;17.77;100.00;96940.47;5016214;28;20132;-45
2022/06/27 05:05:04;;;;;;;1.98;1.17;;;17.80;99.90;;;17.95;100.00;96954.28;5012564;28;20063;-44
2022/06/27 05:07:31;;;;;;;3.58;1.38;;;17.90;99.90;;;18.11;100.00;96960.19;5019059;28;20045;-47
2022/06/27 05:09:58;;;;;;;3.95;1.30;;;18.10;99.90;;;18.38;100.00;96972.44;5012353;28;20036;-48
2022/06/27 05:12:25;;;;;;;3.78;1.35;;;18.30;99.90;;;18.49;100.00;96972.47;5011149;28;20038;-45
2022/06/27 05:14:52;;;;;;;1.98;1.30;;;18.50;99.90;;;18.76;100.00;96979.34;5021229;28;20030;-45
2022/06/27 05:17:18;;;;;;;2.28;1.20;;;18.60;99.90;;;18.91;100.00;96984.50;5014952;28;20183;-45
2022/06/27 05:19:44;;;;;;;4.13;1.73;;;18.80;99.90;;;18.79;100.00;96987.13;5011387;28;20067;-43
2022/06/27 05:22:10;;;;;;;1.80;1.23;;;18.80;99.90;;;18.68;100.00;97003.97;5012791;28;20033;-45
2022/06/27 05:24:36;;;;;;;6.32;1.45;;;18.80;99.90;;;18.63;100.00;97019.50;5015517;28;20038;-44
2022/06/27 05:27:03;;;;;;;2.58;1.50;;;18.70;99.90;;;18.57;100.00;97025.28;5014065;28;20041;-43
2022/06/27 05:29:28;;;;;;;1.27;1.10;;;18.60;99.90;;;18.54;100.00;97025.53;5012367;28;20033;-45
2022/06/27 05:31:54;;;;;;;1.70;1.23;;;18.60;99.90;;;18.49;100.00;97031.19;5011434;28;20037;-44
2022/06/27 05:34:21;;;;;;;1.17;1.02;;;18.60;99.90;;;18.50;100.00;97034.72;5016118;28;20029;-46
2022/06/27 05:36:47;;;;;;;1.88;1.17;;;18.60;99.90;;;18.55;100.00;97035.22;5013807;28;20064;-44
2022/06/27 05:39:13;;;;;;;1.80;1.20;;;18.60;99.90;;;18.59;100.00;97031.38;5011791;28;20483;-48
2022/06/27 05:41:40;;;;;;;1.10;1.00;;;18.60;99.90;;;18.58;100.00;97047.50;5012316;28;20058;-47
2022/06/27 05:44:06;;;;;;;4.05;1.30;;;18.60;99.90;;;18.45;100.00;97069.78;5009057;28;20045;-48
2022/06/27 05:46:32;;;;;;;3.38;1.55;;;18.60;99.90;;;18.41;100.00;97092.34;5010146;28;20036;-46
2022/06/27 05:49:00;;;;;;;1.27;1.17;;;18.50;99.90;;;18.37;100.00;97090.84;4993913;28;20037;-44
2022/06/27 05:51:28;;;;;;;3.42;1.50;;;18.50;99.90;;;18.49;100.00;97084.59;5012939;28;20112;-47
2022/06/27 05:53:56;;;;;;;3.35;1.70;;;18.60;99.90;;;18.59;100.00;97081.25;5018188;28;20025;-47
2022/06/27 05:56:22;;;;;;;5.20;1.60;;;18.70;99.90;;;18.69;100.00;97083.13;5012535;28;20033;-47
2022/06/27 05:58:49;;;;;;;3.97;1.40;;;18.80;99.90;;;18.79;100.00;97095.78;5018499;28;20108;-45
2022/06/27 06:01:15;;;;;;;1.58;1.27;;;18.90;99.90;;;18.80;100.00;97114.38;5006822;28;20126;-48
2022/06/27 06:03:41;;;;;;;2.30;0.95;;;18.90;99.90;;;18.71;100.00;97104.38;4994743;28;20034;-44
2022/06/27 06:06:07;;;;;;;1.48;1.25;;;18.90;99.90;;;18.80;100.00;97109.03;5020093;28;20037;-47
2022/06/27 06:08:33;;;;;;;5.57;1.33;;;18.90;99.90;;;18.90;100.00;97117.25;5022122;28;20026;-48
2022/06/27 06:10:59;;;;;;;2.95;1.02;;;19.00;99.90;;;18.92;100.00;97123.31;5017842;28;20033;-45
2022/06/27 06:13:25;;;;;;;3.70;1.10;;;19.10;99.90;;;18.92;100.00;97125.16;5022594;28;20099;-47
2022/06/27 06:15:51;;;;;;;1.92;1.20;;;19.10;99.90;;;19.01;100.00;97136.00;5017213;28;20121;-45
2022/06/27 06:18:17;;;;;;;1.83;1.17;;;19.20;99.90;;;19.16;100.00;97147.31;5015093;28;20029;-48
2022/06/27 06:20:43;;;;;;;3.60;1.23;;;19.30;99.90;;;19.01;100.00;97124.47;5017262;28;20303;-48
2022/06/27 06:23:09;;;;;;;2.28;1.10;;;19.20;99.90;;;18.96;100.00;97122.13;5006751;28;20083;-45
2022/06/27 06:25:34;;;;;;;2.78;1.10;;;19.20;99.90;;;18.91;100.00;97131.44;5028893;28;20036;-47
2022/06/27 06:28:02;;;;;;;3.50;1.30;;;19.10;99.90;;;18.99;100.00;97127.25;5021776;28;20504;-48
2022/06/27 06:30:30;;;;;;;1.15;0.88;;;19.20;99.90;;;19.19;100.00;97125.72;5011292;28;20116;-47
2022/06/27 06:33:02;;;;;;;2.40;1.08;;;19.30;99.90;;;19.37;100.00;97122.63;5018755;28;20021;-46
2022/06/27 06:35:30;;;;;;;1.13;0.98;;;19.50;99.90;;;19.55;100.00;97126.53;5020901;28;20025;-43
2022/06/27 06:37:57;;;;;;;1.35;0.80;;;19.60;99.90;;;19.75;100.00;97132.19;5018202;28;20087;-46
2022/06/27 06:40:22;;;;;;;2.13;1.00;;;19.80;99.90;;;20.00;100.00;97125.75;5018570;28;20040;-46
2022/06/27 06:42:48;;;;;;;1.10;0.85;;;20.00;99.90;;;20.13;100.00;97141.66;5021015;28;20029;-47
2022/06/27 06:45:14;;;;;;;1.67;0.93;;;20.20;99.90;;;20.24;100.00;97141.66;5014795;28;20029;-46
2022/06/27 06:47:45;;;;;;;1.08;0.70;;;20.30;99.90;;;20.48;100.00;97136.16;5031131;28;20037;-48
2022/06/27 06:50:16;;;;;;;2.58;0.77;;;20.50;99.90;;;20.58;100.00;97134.44;5022877;28;20051;-44
2022/06/27 06:52:42;;;;;;;2.30;0.95;;;20.70;99.90;;;20.74;100.00;97149.28;5018147;28;20037;-45
2022/06/27 06:55:12;;;;;;;3.72;0.90;;;20.80;99.90;;;20.89;100.00;97144.47;5023587;28;20116;-44
2022/06/27 06:57:38;;;;;;;2.03;0.85;;;21.00;99.90;;;21.04;100.00;97139.69;5026119;28;20195;-45
2022/06/27 07:00:06;;;;;;;4.82;1.10;;;21.20;99.90;;;21.35;100.00;97148.66;5018473;28;20037;-44
2022/06/27 07:02:31;;;;;;;2.45;0.95;;;21.50;99.90;;;21.62;100.00;97147.31;5022547;28;20175;-45
2022/06/27 07:04:58;;;;;;;1.40;1.13;;;21.80;99.90;;;21.76;100.00;97159.56;5026025;28;20556;-44
2022/06/27 07:07:25;;;;;;;2.47;0.88;;;21.90;99.90;;;21.93;100.00;97159.78;5023022;28;20034;-48
2022/06/27 07:09:52;;;;;;;4.72;0.80;;;22.00;99.90;;;21.71;100.00;97154.56;5023307;28;20036;-45
2022/06/27 07:12:18;;;;;;;0.88;0.77;;;22.10;99.90;;;21.59;100.00;97159.19;5022012;28;20029;-44
2022/06/27 07:14:45;;;;;;;1.83;0.80;;;21.90;99.90;;;21.63;100.00;97157.09;5023339;28;20060;-44
2022/06/27 07:17:11;;;;;;;1.52;0.90;;;21.90;99.90;;;21.63;100.00;97159.75;5029211;28;20025;-46
2022/06/27 07:19:38;;;;;;;1.30;0.93;;;21.80;99.90;;;21.44;100.00;97157.75;5034289;28;20051;-44
2022/06/27 07:22:06;;;;;;;1.80;0.70;;;21.60;99.90;;;21.39;100.00;97143.88;5020642;28;20041;-46
2022/06/27 07:24:32;;;;;;;2.67;0.85;;;21.50;99.90;;;21.43;100.00;97143.50;5023550;28;20029;-45
2022/06/27 07:26:59;;;;;;;3.42;0.82;;;21.50;99.90;;;21.61;100.00;97142.94;5029754;28;20108;-48
2022/06/27 07:29:27;;;;;;;3.55;0.90;;;21.80;99.90;;;21.77;100.00;97140.63;5020744;28;20039;-48
2022/06/27 07:31:53;;;;;;;5.10;0.80;;;22.00;99.90;;;21.91;100.00;97152.84;5018189;28;20052;-45
2022/06/27 07:34:21;;;;;;;1.42;0.73;;;22.20;99.90;;;21.96;100.00;97139.03;5014875;28;20160;-46
2022/06/27 07:36:48;;;;;;;2.55;0.88;;;22.20;99.90;;;21.93;100.00;97149.06;5019232;28;20127;-44
2022/06/27 07:39:14;;;;;;;4.20;0.70;;;22.10;99.90;;;21.90;100.00;97161.91;5025740;28;20020;-49
2022/06/27 07:41:40;;;;;;;1.73;0.63;;;22.10;99.90;;;21.84;100.00;97168.66;5020094;28;20468;-45
2022/06/27 07:44:07;;;;;;;1.25;0.80;;;22.10;99.90;;;21.85;100.00;97177.53;5022230;28;20029;-46
2022/06/27 07:46:34;;;;;;;1.23;0.60;;;22.10;99.90;;;22.02;100.00;97181.44;5018997;28;20473;-45
2022/06/27 07:49:00;;;;;;;0.60;0.50;;;22.30;99.90;;;21.98;100.00;97186.22;5019592;28;20124;-49
2022/06/27 07:51:27;;;;;;;0.85;0.50;;;22.30;99.90;;;21.90;100.00;97194.94;5023597;28;20025;-44
2022/06/27 07:53:53;;;;;;;2.10;0.88;;;22.30;99.90;;;21.99;100.00;97203.22;5023695;28;20029;-50
2022/06/27 07:56:23;;;;;;;1.20;0.65;;;22.30;99.90;;;22.05;100.00;97195.44;5021210;28;20124;-44
2022/06/27 07:58:49;;;;;;;1.30;0.57;;;22.30;99.90;;;22.07;100.00;97203.38;5025285;28;20560;-46
2022/06/27 08:01:16;;;;;;;1.13;0.70;;;22.20;99.90;;;22.11;100.00;97202.16;5024909;28;20520;-44
2022/06/27 08:03:44;;;;;;;1.48;0.68;;;22.40;99.90;;;22.19;100.00;97210.38;5024010;28;20029;-44
2022/06/27 08:06:28;;;;;;;1.30;0.70;;;22.40;99.90;;;22.30;100.00;97215.66;5020223;28;20671;-45
2022/06/27 08:09:01;;;;;;;1.00;0.57;;;22.50;99.90;;;22.32;100.00;97218.22;5016984;28;20087;-47
2022/06/27 08:11:34;;;;;;;2.60;0.80;;;22.50;99.90;;;22.23;100.00;97221.69;5021343;28;20061;-45
2022/06/27 08:14:05;;;;;;;0.70;0.47;;;22.50;99.90;;;22.23;100.00;97210.94;5019316;28;20041;-45
2022/06/27 08:16:33;;;;;;;1.25;0.40;;;22.50;99.90;;;22.34;100.00;97215.41;5017867;28;20021;-46
2022/06/27 08:19:00;;;;;;;2.83;0.85;;;22.60;99.90;;;22.44;100.00;97209.09;5023900;28;20033;-46
2022/06/27 08:21:27;;;;;;;2.03;0.70;;;22.80;99.90;;;22.60;100.00;97219.34;5015227;28;20029;-45
2022/06/27 08:23:58;;;;;;;2.33;0.65;;;23.10;99.90;;;23.20;100.00;97213.13;5023791;28;20032;-45
2022/06/27 08:26:26;;;;;;;0.65;0.50;;;23.50;99.90;;;23.68;99.99;97214.97;5016241;28;20030;-45
2022/06/27 08:28:53;;;;;;;2.38;0.52;;;24.10;99.90;;;24.25;97.28;97230.34;5019132;28;20128;-45
2022/06/27 08:31:19;;;;;;;2.30;0.60;;;24.60;99.90;;;24.70;93.46;97222.38;5020801;28;20041;-47
2022/06/27 08:33:46;;;;;;;2.08;0.70;;;25.00;99.90;;;25.10;91.50;97223.00;5024502;28;20055;-45
2022/06/27 08:36:17;;;;;;;1.48;0.70;;;25.40;99.90;;;25.09;90.49;97232.09;5024273;28;20025;-46
2022/06/27 08:38:48;;;;;;;5.00;0.70;;;25.60;99.90;;;24.98;79.70;97237.69;5018589;28;20482;-49
2022/06/27 08:41:15;;;;;;;0.73;0.60;;;25.50;99.90;;;25.14;87.21;97238.72;5019663;28;20165;-48
2022/06/27 08:43:42;;;;;;;0.95;0.55;;;25.40;99.90;;;25.03;88.64;97240.78;5007083;28;20053;-45
2022/06/27 08:46:13;;;;;;;1.27;0.65;;;25.30;99.90;;;25.02;88.21;97247.19;5019600;28;20246;-49
2022/06/27 08:48:41;;;;;;;0.60;0.60;;;25.30;99.90;;;24.77;85.06;97236.13;5024062;28;20037;-47
2022/06/27 08:51:07;;;;;;;0.50;0.40;;;25.00;99.90;;;24.75;88.97;97248.91;5021752;28;20462;-45
2022/06/27 08:53:34;;;;;;;2.80;0.80;;;24.90;99.90;;;24.60;88.87;97258.47;5014647;28;20032;-45
2022/06/27 08:56:01;;;;;;;1.50;0.60;;;24.80;99.90;;;24.39;87.27;97256.81;4997200;28;20360;-45
2022/06/27 08:58:29;;;;;;;1.48;0.60;;;24.60;99.90;;;24.02;86.68;97252.22;5019122;28;20037;-49
2022/06/27 09:00:56;;;;;;;2.10;0.60;;;24.40;99.90;;;23.63;89.23;97252.22;5025486;28;20033;-47
2022/06/27 09:03:23;;;;;;;1.95;0.70;;;24.00;99.90;;;23.48;92.11;97242.88;5025198;28;20041;-48
2022/06/27 09:06:00;;;;;;;0.90;0.60;;;23.70;99.90;;;23.33;93.31;97248.69;5022621;28;20037;-47
2022/06/27 09:08:36;;;;;;;0.40;0.40;;;23.50;99.90;;;23.23;93.14;97245.13;5019001;28;20033;-46
2022/06/27 09:11:03;;;;;;;0.60;0.60;;;23.40;99.90;;;23.22;91.74;97249.66;5020677;28;20033;-45
2022/06/27 09:13:30;;;;;;;1.17;0.50;;;23.40;99.90;;;23.02;92.22;97256.81;5024629;28;20030;-47
2022/06/27 09:16:02;;;;;;;2.38;0.85;;;23.20;99.90;;;22.95;93.52;97263.75;5021455;28;20508;-45
2022/06/27 09:18:34;;;;;;;;;;;23.20;99.90;;;22.93;93.49;97273.75;5020217;28;20060;-47
2022/06/27 09:21:09;;;;;;;1.15;0.50;;;23.10;99.90;;;22.83;94.65;97263.00;5019511;28;19937;-47
2022/06/27 09:23:47;;;;;;;1.40;0.70;;;23.10;99.90;;;22.71;95.54;97253.31;5019390;28;20044;-47
2022/06/27 09:26:19;;;;;;;0.82;0.70;;;23.00;99.90;;;22.47;98.05;97241.06;5021945;28;20358;-49
2022/06/27 09:29:02;;;;;;;1.17;0.75;;;22.80;99.90;;;22.54;98.33;97256.66;5023950;28;20034;-49
2022/06/27 09:31:30;;;;;;;0.63;0.60;;;22.70;99.90;;;22.39;98.58;97253.47;5015546;28;20033;-47
2022/06/27 09:34:10;;;;;;;0.60;0.60;;;22.60;99.90;;;22.41;100.00;97252.34;5021190;28;20063;-47
2022/06/27 09:36:49;;;;;;;2.28;0.63;;;22.50;99.90;;;22.43;98.89;97241.47;5017163;28;20025;-48
2022/06/27 09:39:31;;;;;;;3.95;0.80;;;22.60;99.90;;;22.32;94.96;97255.00;5020918;28;20066;-47
2022/06/27 09:42:05;;;;;;;1.08;0.60;;;22.50;99.90;;;22.30;98.45;97242.53;5021230;28;20508;-48
2022/06/27 09:44:44;;;;;;;3.47;0.80;;;22.50;99.90;;;22.34;99.49;97243.13;5023515;28;20033;-48
2022/06/27 09:47:21;;;;;;;0.75;0.65;;;22.60;99.90;;;22.61;100.00;97237.19;5018925;28;20033;-47
2022/06/27 09:49:56;;;;;;;1.00;0.88;;;22.80;99.90;;;22.88;97.82;97233.84;5003675;28;20052;-48
2022/06/27 09:52:24;;;;;;;0.80;0.60;;;23.10;99.90;;;23.02;97.67;97245.19;5019590;28;20087;-45
2022/06/27 09:54:53;;;;;;;1.85;0.68;;;23.20;99.90;;;23.03;98.48;97247.75;5023380;28;20032;-49
2022/06/27 09:57:20;;;;;;;1.08;0.80;;;23.20;99.90;;;23.05;90.98;97256.56;5022416;28;20041;-49
2022/06/27 09:59:50;;;;;;;1.17;1.08;;;23.30;99.90;;;23.37;91.90;97266.25;5023109;28;20492;-47
2022/06/27 10:02:19;;;;;;;1.30;0.73;;;23.50;99.90;;;23.48;91.69;97267.09;5022600;28;20094;-45
2022/06/27 10:04:47;;;;;;;2.05;0.70;;;23.60;99.90;;;23.39;90.58;97276.88;5020057;28;20083;-47
2022/06/27 10:07:16;;;;;;;0.85;0.80;;;23.60;99.90;;;23.46;94.68;97278.00;5017528;28;20044;-45
2022/06/27 10:09:42;;;;;;;1.10;0.80;;;23.60;99.90;;;23.46;92.24;97287.94;5012403;28;20371;-45
2022/06/27 10:12:28;;;;;;;1.33;0.98;;;23.70;99.90;;;23.66;94.14;97286.94;5025038;28;20083;-45
2022/06/27 10:15:09;;;;;;;1.05;1.02;;;23.90;99.90;;;23.61;85.93;97292.72;5018665;28;20029;-45
2022/06/27 10:17:52;;;;;;;1.73;1.02;;;23.90;99.90;;;23.52;89.22;97301.66;5022314;28;20035;-46
2022/06/27 10:20:32;;;;;;;1.50;1.20;;;23.80;99.90;;;23.44;89.99;97307.75;5017155;28;20561;-45